Time;durP1;ratioP1;P1;durP2;ratioP2;P2;SDS_P1;SDS_P2;PMS_P1;PMS_P2;Temp;Humidity;BMP_temperature;BMP_pressure;BME280_temperature;BME280_humidity;BME280_pressure;Samples;Min_cycle;Max_cycle;Signal;HPM_P1;HPM_P2
2022/05/20 00:03:01;;;;;;;0.00;0.00;;;;;;;12.48;88.15;102174.91;10444813;28;20048;-75
2022/05/20 00:08:04;;;;;;;0.00;0.00;;;;;;;12.36;88.90;102173.63;10444314;28;20045;-75
2022/05/20 00:13:07;;;;;;;0.00;0.00;;;;;;;11.99;88.96;102185.09;10444183;28;20075;-75
2022/05/20 00:18:08;;;;;;;0.00;0.00;;;;;;;12.00;89.51;102171.38;10461641;28;20110;-74
2022/05/20 00:23:10;;;;;;;0.00;0.00;;;;;;;11.98;89.45;102182.47;10443964;28;20045;-75
2022/05/20 00:28:15;;;;;;;0.00;0.00;;;;;;;11.58;88.69;102176.47;10461290;28;20049;-75
2022/05/20 00:34:08;;;;;;;0.00;0.00;;;;;;;11.83;88.77;102175.81;10426897;28;20045;-75
2022/05/20 00:39:10;;;;;;;0.00;0.00;;;;;;;11.55;88.92;102172.06;10443616;28;20041;-74
2022/05/20 00:44:11;;;;;;;0.00;0.00;;;;;;;11.70;89.78;102177.00;10426427;28;20049;-75
2022/05/20 00:49:15;;;;;;;0.00;0.00;;;;;;;11.67;89.05;102186.31;10460460;28;20443;-75
2022/05/20 00:54:20;;;;;;;0.00;0.00;;;;;;;11.59;89.45;102188.56;10442491;28;20051;-75
2022/05/20 00:59:27;;;;;;;0.00;0.00;;;;;;;11.48;89.44;102188.09;10442299;28;20561;-75
2022/05/20 01:04:30;;;;;;;0.00;0.00;;;;;;;11.40;89.16;102180.06;10442229;28;20484;-75
2022/05/20 01:09:32;;;;;;;0.10;0.10;;;;;;;11.30;89.41;102190.78;10458449;28;20122;-75
2022/05/20 01:14:34;;;;;;;0.00;0.00;;;;;;;11.22;89.77;102189.56;10441941;28;20041;-75
2022/05/20 01:19:40;;;;;;;0.00;0.00;;;;;;;11.01;89.38;102187.78;10440031;28;20049;-79
2022/05/20 01:24:42;;;;;;;0.00;0.00;;;;;;;10.85;89.04;102190.50;10454451;28;20128;-79
2022/05/20 01:29:44;;;;;;;0.10;0.10;;;;;;;10.72;89.15;102184.78;10452328;28;20522;-79
2022/05/20 01:34:46;;;;;;;0.00;0.00;;;;;;;10.79;88.50;102185.97;10475755;28;20040;-79
2022/05/20 01:39:47;;;;;;;0.00;0.00;;;;;;;10.67;88.67;102186.28;10516369;28;20488;-79
2022/05/20 01:44:55;;;;;;;0.00;0.00;;;;;;;10.55;89.05;102173.72;10500811;28;20048;-79
2022/05/20 01:50:12;;;;;;;0.00;0.00;;;;;;;10.04;89.34;102166.13;10508590;28;20033;-78
2022/05/20 01:55:24;;;;;;;0.00;0.00;;;;;;;10.37;89.13;102155.69;10450714;28;20049;-77
2022/05/20 02:00:30;;;;;;;0.00;0.00;;;;;;;10.46;89.06;102156.09;10442216;28;20049;-78
2022/05/20 02:05:49;;;;;;;0.00;0.00;;;;;;;10.50;88.55;102140.81;10451866;28;20052;-78
2022/05/20 02:10:55;;;;;;;0.00;0.00;;;;;;;10.42;88.03;102137.88;10470796;28;20048;-78
2022/05/20 02:16:03;;;;;;;0.00;0.00;;;;;;;10.38;88.33;102130.81;10474966;28;20044;-78
2022/05/20 02:21:12;;;;;;;1.02;1.00;;;;;;;10.11;88.83;102132.13;10468233;28;20041;-78
2022/05/20 02:26:17;;;;;;;0.00;0.00;;;;;;;10.20;89.08;102130.78;10450920;28;20057;-78
2022/05/20 02:31:29;;;;;;;0.10;0.10;;;;;;;10.15;88.85;102133.16;10475567;28;20037;-78
2022/05/20 02:36:33;;;;;;;0.00;0.00;;;;;;;9.96;88.58;102131.38;10474110;28;20040;-78
2022/05/20 02:41:34;;;;;;;0.00;0.00;;;;;;;9.97;88.94;102122.84;10443375;28;20473;-78
2022/05/20 02:46:38;;;;;;;0.00;0.00;;;;;;;9.89;88.51;102119.03;10450552;28;20053;-78
2022/05/20 02:51:40;;;;;;;0.00;0.00;;;;;;;9.97;87.82;102122.84;10432166;28;20053;-79
2022/05/20 02:56:44;;;;;;;0.00;0.00;;;;;;;9.85;88.09;102133.44;10467293;28;20048;-79
2022/05/20 03:07:06;;;;;;;0.00;0.00;;;;;;;9.88;88.39;102132.72;10432021;28;20079;-79
2022/05/20 03:12:13;;;;;;;0.00;0.00;;;;;;;9.75;88.76;102134.69;10395760;28;20045;-78
2022/05/20 03:17:14;;;;;;;0.00;0.00;;;;;;;9.76;88.65;102133.88;10408983;28;20068;-78
2022/05/20 03:22:16;;;;;;;0.00;0.00;;;;;;;9.53;88.10;102140.47;10429400;28;20102;-79
2022/05/20 03:27:18;;;;;;;0.00;0.00;;;;;;;9.57;88.37;102138.94;10449871;28;20047;-78
2022/05/20 03:32:19;;;;;;;0.00;0.00;;;;;;;9.40;88.77;102135.50;10486359;28;20420;-78
2022/05/20 03:37:21;;;;;;;0.00;0.00;;;;;;;9.58;87.86;102127.81;10491022;28;20476;-77
2022/05/20 03:42:24;;;;;;;0.00;0.00;;;;;;;9.21;88.19;102130.31;10458181;28;20114;-75
2022/05/20 03:47:26;;;;;;;0.00;0.00;;;;;;;9.27;88.49;102129.75;10436891;28;20041;-75
2022/05/20 03:52:27;;;;;;;0.00;0.00;;;;;;;9.22;89.38;102138.94;10440315;28;20115;-75
2022/05/20 03:57:29;;;;;;;0.15;0.15;;;;;;;9.26;89.61;102150.25;10444119;28;20045;-75
2022/05/20 04:02:31;;;;;;;0.00;0.00;;;;;;;9.40;90.18;102154.41;10413157;28;20041;-74
2022/05/20 04:07:33;;;;;;;0.00;0.00;;;;;;;9.42;90.53;102150.19;10402423;28;20053;-74
2022/05/20 04:12:38;;;;;;;0.00;0.00;;;;;;;9.70;89.46;102143.88;10403510;28;20076;-74
2022/05/20 04:17:40;;;;;;;0.00;0.00;;;;;;;9.79;88.39;102146.88;10420051;28;20056;-74
2022/05/20 04:22:42;;;;;;;0.52;0.52;;;;;;;9.43;89.11;102156.25;10418384;28;20095;-74
2022/05/20 04:27:43;;;;;;;0.00;0.00;;;;;;;9.52;90.06;102159.28;10418421;28;20041;-74
2022/05/20 04:32:45;;;;;;;0.00;0.00;;;;;;;9.86;89.17;102149.78;10441560;28;20056;-74
2022/05/20 04:37:47;;;;;;;0.00;0.00;;;;;;;9.91;88.78;102144.03;10442956;28;20396;-74
2022/05/20 04:48:09;;;;;;;0.00;0.00;;;;;;;10.21;89.45;102177.22;10443012;28;20053;-74
2022/05/20 04:54:49;;;;;;;0.00;0.00;;;;;;;10.44;89.25;102170.63;10459455;28;20041;-74
2022/05/20 04:58:32;;;;;;;0.00;0.00;;;;;;;10.46;89.06;102166.41;10460355;28;20075;-74
2022/05/20 05:03:34;;;;;;;0.00;0.00;;;;;;;10.43;89.08;102166.28;10459680;28;20045;-74
2022/05/20 05:08:35;;;;;;;0.00;0.00;;;;;;;10.53;89.27;102166.72;10442501;28;20071;-74
2022/05/20 05:13:37;;;;;;;0.00;0.00;;;;;;;10.60;90.20;102174.78;10443860;28;20053;-74
2022/05/20 05:18:39;;;;;;;0.00;0.00;;;;;;;11.09;90.11;102165.81;10441558;28;20041;-74
2022/05/20 05:23:40;;;;;;;0.00;0.00;;;;;;;11.20;90.24;102157.66;10459521;28;20049;-74
2022/05/20 05:28:42;;;;;;;0.00;0.00;;;;;;;11.52;90.85;102158.16;10459677;28;20408;-74
2022/05/20 05:33:43;;;;;;;0.00;0.00;;;;;;;11.98;90.48;102157.50;10457943;28;20053;-75
2022/05/20 05:38:46;;;;;;;0.00;0.00;;;;;;;12.20;90.91;102150.59;10441308;28;20052;-75
2022/05/20 05:43:48;;;;;;;0.00;0.00;;;;;;;12.30;91.15;102150.16;10457558;28;20406;-74
2022/05/20 05:48:50;;;;;;;0.00;0.00;;;;;;;12.70;91.00;102135.25;10440779;28;20534;-75
2022/05/20 05:53:56;;;;;;;0.00;0.00;;;;;;;12.82;90.43;102130.53;10458170;28;20087;-76
2022/05/20 05:58:58;;;;;;;0.00;0.00;;;;;;;13.01;90.44;102134.66;10440242;28;20049;-75
2022/05/20 06:04:00;;;;;;;0.00;0.00;;;;;;;13.02;90.32;102138.16;10439807;28;20057;-74
2022/05/20 06:09:02;;;;;;;0.08;0.08;;;;;;;13.29;90.30;102132.16;10440520;28;20041;-75
2022/05/20 06:14:05;;;;;;;0.00;0.00;;;;;;;13.36;89.88;102131.53;10439721;28;20106;-75
2022/05/20 06:19:07;;;;;;;0.28;0.28;;;;;;;13.53;89.71;102123.50;10457738;28;20511;-75
2022/05/20 06:24:08;;;;;;;0.00;0.00;;;;;;;13.67;88.45;102121.34;10456873;28;20048;-75
2022/05/20 06:29:10;;;;;;;0.00;0.00;;;;;;;13.89;88.67;102122.94;10454819;28;20060;-75
2022/05/20 06:34:12;;;;;;;0.20;0.20;;;;;;;13.99;88.61;102118.91;10455373;28;20404;-76
2022/05/20 06:44:34;;;;;;;0.08;0.08;;;;;;;14.53;87.36;102105.88;10456643;28;20049;-76
2022/05/20 06:49:36;;;;;;;0.00;0.00;;;;;;;14.93;86.95;102095.75;10438643;28;20496;-75
2022/05/20 06:54:38;;;;;;;0.00;0.00;;;;;;;15.45;85.22;102096.19;10456700;28;20055;-76
2022/05/20 06:59:40;;;;;;;0.00;0.00;;;;;;;15.48;84.17;102088.50;10455265;28;20041;-75
2022/05/20 07:04:41;;;;;;;0.00;0.00;;;;;;;15.96;83.15;102068.00;10456365;28;20053;-76
2022/05/20 07:09:43;;;;;;;0.00;0.00;;;;;;;16.15;80.86;102059.75;10456054;28;20091;-76
2022/05/20 07:14:44;;;;;;;0.57;0.45;;;;;;;16.44;80.27;102056.84;10438450;28;20061;-76
2022/05/20 07:19:47;;;;;;;0.10;0.10;;;;;;;16.72;79.08;102067.78;10456499;28;20049;-76
2022/05/20 07:24:48;;;;;;;0.63;0.60;;;;;;;17.22;78.05;102063.53;10455974;28;20492;-76
2022/05/20 07:29:50;;;;;;;0.55;0.55;;;;;;;18.03;78.14;102066.53;10463059;28;20095;-76
2022/05/20 07:34:52;;;;;;;0.00;0.00;;;;;;;17.52;74.39;102062.28;10445762;28;20488;-75
2022/05/20 07:39:53;;;;;;;0.00;0.00;;;;;;;18.35;73.76;102042.59;10445699;28;20107;-76
2022/05/20 07:44:57;;;;;;;0.47;0.47;;;;;;;17.94;73.53;102029.00;10445400;28;20404;-76
2022/05/20 07:49:59;;;;;;;0.00;0.00;;;;;;;18.20;75.71;102011.97;10463936;28;20041;-76
2022/05/20 07:55:04;;;;;;;0.35;0.25;;;;;;;18.05;71.28;102006.56;10462994;28;20041;-76
2022/05/20 08:00:09;;;;;;;0.00;0.00;;;;;;;18.35;69.07;101999.94;10462774;28;20488;-76
2022/05/20 08:05:12;;;;;;;0.08;0.08;;;;;;;18.21;70.36;101985.03;10462720;28;20061;-79
2022/05/20 08:10:17;;;;;;;0.00;0.00;;;;;;;17.98;73.58;101974.34;10472205;28;20099;-80
2022/05/20 08:15:19;;;;;;;0.00;0.00;;;;;;;18.63;69.98;101964.59;10461949;28;20470;-80
2022/05/20 08:20:28;;;;;;;0.28;0.28;;;;;;;18.14;66.06;101958.84;10479486;28;20090;-80
2022/05/20 08:25:30;;;;;;;0.00;0.00;;;;;;;19.64;67.68;101945.28;10501738;28;20045;-79
2022/05/20 08:30:32;;;;;;;0.00;0.00;;;;;;;19.77;64.05;101947.97;10511256;28;20086;-81
2022/05/20 08:35:34;;;;;;;0.05;0.05;;;;;;;19.73;63.22;101931.38;10463962;28;20087;-80
2022/05/20 08:40:45;;;;;;;0.00;0.00;;;;;;;19.23;62.37;101931.97;10499396;28;20049;-81
2022/05/20 08:45:46;;;;;;;0.00;0.00;;;;;;;19.77;63.56;101937.53;10501600;28;20041;-80
2022/05/20 08:50:51;;;;;;;0.00;0.00;;;;;;;20.14;61.51;101929.81;10501489;28;20081;-80
2022/05/20 08:55:57;;;;;;;0.10;0.10;;;;;;;20.22;62.61;101920.22;10507622;28;20029;-80
2022/05/20 09:00:59;;;;;;;0.00;0.00;;;;;;;20.19;60.80;101925.47;10498826;28;20049;-80
2022/05/20 09:06:08;;;;;;;0.00;0.00;;;;;;;20.42;59.89;101911.53;10487665;28;20037;-81
2022/05/20 09:11:14;;;;;;;0.10;0.10;;;;;;;20.65;58.49;101902.81;10485270;28;20036;-80
2022/05/20 09:16:28;;;;;;;0.00;0.00;;;;;;;21.21;58.12;101904.53;10537994;28;20044;-81
2022/05/20 09:21:33;;;;;;;0.00;0.00;;;;;;;20.54;56.56;101882.75;10492786;28;20051;-81
2022/05/20 09:26:39;;;;;;;0.00;0.00;;;;;;;20.82;58.23;101861.81;10445359;28;20136;-80
2022/05/20 09:31:51;;;;;;;1.55;0.75;;;;;;;20.51;58.63;101848.75;10440925;28;20110;-81
2022/05/20 09:37:05;;;;;;;0.00;0.00;;;;;;;20.58;60.54;101833.88;10458187;28;20057;-81
2022/05/20 09:42:20;;;;;;;0.00;0.00;;;;;;;20.61;60.40;101826.91;10459226;28;20061;-80
2022/05/20 09:47:53;;;;;;;0.00;0.00;;;;;;;20.70;58.17;101826.00;10444618;28;20045;-80
2022/05/20 09:53:01;;;;;;;0.00;0.00;;;;;;;20.41;58.94;101826.91;10458522;28;20063;-81
2022/05/20 09:58:14;;;;;;;0.07;0.07;;;;;;;20.08;58.28;101818.19;10475092;28;20488;-81
2022/05/20 10:03:19;;;;;;;0.00;0.00;;;;;;;20.74;58.40;101819.94;10439511;28;20087;-81
2022/05/20 10:08:27;;;;;;;1.30;0.60;;;;;;;20.22;56.02;101820.78;10440788;28;20098;-82
2022/05/20 10:13:42;;;;;;;0.20;0.20;;;;;;;20.08;58.03;101797.25;10448929;28;20079;-82
2022/05/20 10:18:59;;;;;;;0.00;0.00;;;;;;;20.27;56.86;101768.47;10470279;28;20087;-81
2022/05/20 10:24:26;;;;;;;0.28;0.28;;;;;;;20.57;57.40;101753.59;10438943;28;20144;-82
2022/05/20 10:34:55;;;;;;;0.00;0.00;;;;;;;21.14;56.02;101729.84;10492465;28;20295;-82
2022/05/20 10:40:33;;;;;;;0.00;0.00;;;;;;;21.86;53.37;101712.81;10446071;28;20048;-82
2022/05/20 10:52:02;;;;;;;0.20;0.20;;;;;;;22.53;52.44;101675.44;10448513;28;20080;-82
2022/05/20 10:57:41;;;;;;;0.65;0.65;;;;;;;22.33;52.44;101646.75;10315490;28;20042;-82
2022/05/20 11:02:48;;;;;;;0.15;0.15;;;;;;;22.63;50.13;101636.81;10395301;28;20057;-81
2022/05/20 11:08:15;;;;;;;0.00;0.00;;;;;;;22.80;54.66;101615.56;10423272;28;20054;-83
2022/05/20 11:13:55;;;;;;;0.00;0.00;;;;;;;22.38;53.24;101595.06;10415380;28;20065;-80
2022/05/20 11:19:14;;;;;;;0.00;0.00;;;;;;;22.51;54.31;101580.06;10422487;28;20060;-80
2022/05/20 11:24:42;;;;;;;0.00;0.00;;;;;;;22.85;52.12;101557.69;10447368;28;20053;-81
2022/05/20 11:30:00;;;;;;;0.20;0.20;;;;;;;22.48;52.18;101538.97;10422872;28;20045;-81
2022/05/20 11:35:14;;;;;;;0.88;0.45;;;;;;;22.38;51.65;101512.81;10505195;28;20052;-81
2022/05/20 11:40:33;;;;;;;0.00;0.00;;;;;;;22.26;53.43;101492.84;10461672;28;20245;-82
2022/05/20 11:45:58;;;;;;;0.63;0.47;;;;;;;22.72;52.07;101471.22;10461647;28;20056;-82
2022/05/20 11:51:18;;;;;;;0.40;0.40;;;;;;;22.79;52.71;101459.72;10402150;28;20316;-81
2022/05/20 11:56:29;;;;;;;0.00;0.00;;;;;;;23.25;55.27;101428.31;10434365;28;20488;-82
2022/05/20 12:01:31;;;;;;;0.70;0.65;;;;;;;;;;10485341;28;20040;-84
2022/05/20 12:06:41;;;;;;;0.00;0.00;;;;;;;22.06;53.94;101423.16;10429714;28;20060;-82
2022/05/20 12:12:15;;;;;;;0.00;0.00;;;;;;;22.59;58.39;101417.16;10507299;28;20052;-83
2022/05/20 12:17:51;;;;;;;1.17;0.95;;;;;;;21.83;57.73;101413.84;10507498;28;20040;-81
2022/05/20 12:28:36;;;;;;;1.88;1.55;;;;;;;21.49;60.72;101367.00;10443175;28;20385;-82
2022/05/20 12:34:06;;;;;;;0.30;0.30;;;;;;;21.14;59.86;101363.06;10479337;28;20515;-79
2022/05/20 12:39:08;;;;;;;0.47;0.47;;;;;;;20.73;60.79;101346.03;10488278;28;20374;-83
2022/05/20 12:44:15;;;;;;;2.45;0.45;;;;;;;20.65;60.72;101337.34;10440190;28;20041;-81
2022/05/20 12:49:19;;;;;;;0.00;0.00;;;;;;;20.68;62.81;101337.28;10465206;28;20036;-81
2022/05/20 12:54:26;;;;;;;0.38;0.32;;;;;;;20.22;65.42;101342.03;10445685;28;20049;-80
2022/05/20 12:59:30;;;;;;;4.18;0.95;;;;;;;20.13;67.97;101345.56;10442672;28;20057;-80
2022/05/20 13:04:39;;;;;;;0.30;0.30;;;;;;;19.48;72.17;101319.78;10442078;28;20053;-79
2022/05/20 13:09:42;;;;;;;0.00;0.00;;;;;;;19.27;72.81;101346.84;10441631;28;20129;-79
2022/05/20 13:14:53;;;;;;;0.32;0.32;;;;;;;18.85;75.54;101411.31;10453916;28;20045;-77
2022/05/20 13:19:55;;;;;;;0.03;0.03;;;;;;;18.25;81.78;101346.94;10415914;28;20049;-79
2022/05/20 13:24:57;;;;;;;0.00;0.00;;;;;;;17.62;83.38;101284.22;10435806;28;20052;-79
2022/05/20 13:30:16;;;;;;;0.73;0.63;;;;;;;17.55;84.67;101245.13;10447048;28;20105;-78
2022/05/20 13:35:18;;;;;;;0.00;0.00;;;;;;;17.54;86.03;101217.31;10464375;28;20056;-79
2022/05/20 13:40:27;;;;;;;0.00;0.00;;;;;;;17.52;87.14;101168.69;10468973;28;20554;-78
2022/05/20 13:50:59;;;;;;;1.08;1.08;;;;;;;18.22;87.03;101164.38;10466487;28;20118;-78
2022/05/20 13:56:04;;;;;;;0.00;0.00;;;;;;;18.31;86.50;101148.72;10494969;28;20491;-79
2022/05/20 14:01:10;;;;;;;0.10;0.10;;;;;;;18.38;85.84;101150.44;10446838;28;20404;-78
2022/05/20 14:06:25;;;;;;;0.30;0.30;;;;;;;18.74;86.28;101158.16;10436613;28;20082;-79
2022/05/20 14:11:52;;;;;;;0.00;0.00;;;;;;;18.85;86.29;101160.72;10436413;28;20114;-78
2022/05/20 14:16:59;;;;;;;0.10;0.10;;;;;;;19.09;85.66;101164.13;10454569;28;20044;-78
2022/05/20 14:22:06;;;;;;;0.10;0.10;;;;;;;18.86;85.34;101178.13;10459467;28;20106;-78
2022/05/20 14:27:42;;;;;;;2.15;1.23;;;;;;;18.94;85.55;101129.38;10436135;28;20040;-79
2022/05/20 14:32:49;;;;;;;3.53;1.88;;;;;;;18.94;85.76;101113.72;10449677;28;20041;-78
2022/05/20 14:37:53;;;;;;;2.92;0.75;;;;;;;18.92;86.07;101115.47;10451916;28;20078;-79
2022/05/20 14:42:59;;;;;;;1.00;0.45;;;;;;;18.91;87.12;101108.47;10433647;28;20044;-79
2022/05/20 14:48:10;;;;;;;0.25;0.25;;;;;;;18.96;88.02;101096.28;10415498;28;20040;-77
2022/05/20 14:53:14;;;;;;;0.28;0.25;;;;;;;19.17;88.71;101079.63;10448302;28;20282;-77
2022/05/20 14:58:22;;;;;;;1.85;0.75;;;;;;;19.41;87.84;101077.72;10454226;28;20037;-79
2022/05/20 15:03:28;;;;;;;9.82;3.85;;;;;;;19.59;87.36;101084.53;10451186;28;20048;-79
2022/05/20 15:08:33;;;;;;;1.40;1.30;;;;;;;19.68;86.60;101069.63;10433820;28;20072;-79
2022/05/20 15:13:35;;;;;;;1.15;1.05;;;;;;;19.81;85.58;101071.25;10434115;28;20063;-80
2022/05/20 15:18:37;;;;;;;4.20;3.28;;;;;;;19.65;83.28;101057.47;10436345;28;20518;-82
2022/05/20 15:23:47;;;;;;;1.85;1.23;;;;;;;19.52;82.46;101061.06;10451060;28;20554;-82
2022/05/20 15:28:53;;;;;;;1.70;0.82;;;;;;;19.63;80.52;101069.69;10434711;28;20140;-85
2022/05/20 15:39:26;;;;;;;0.77;0.52;;;;;;;19.66;79.81;101052.22;10411775;28;20056;-83
2022/05/20 15:44:28;;;;;;;0.10;0.10;;;;;;;19.86;80.00;101074.72;10438010;28;20095;-84
2022/05/20 15:49:29;;;;;;;1.30;1.05;;;;;;;19.68;79.64;101064.41;10442193;28;20040;-82
2022/05/20 15:54:33;;;;;;;2.10;1.38;;;;;;;19.57;79.38;101064.50;10461259;28;20053;-81
2022/05/20 15:59:41;;;;;;;0.95;0.55;;;;;;;19.32;82.22;101062.09;10448923;28;20041;-84
2022/05/20 16:04:46;;;;;;;0.28;0.25;;;;;;;19.29;83.23;101057.75;10428054;28;20416;-84
2022/05/20 16:09:50;;;;;;;0.00;0.00;;;;;;;19.34;83.84;101055.97;10441727;28;20103;-83
2022/05/20 16:14:52;;;;;;;3.20;2.00;;;;;;;19.40;82.42;101080.34;10414699;28;20050;-84
2022/05/20 16:19:56;;;;;;;0.57;0.57;;;;;;;18.99;81.43;101096.28;10420725;28;20037;-86
2022/05/20 16:24:59;;;;;;;7.80;5.25;;;;;;;18.51;82.42;101119.06;10427207;28;20049;-81
2022/05/20 16:30:00;;;;;;;1.33;1.13;;;;;;;18.13;82.50;101157.44;10415613;28;20420;-81
2022/05/20 16:35:03;;;;;;;5.90;2.28;;;;;;;16.88;82.80;101198.84;10439567;28;20550;-80
2022/05/20 16:40:09;;;;;;;0.43;0.43;;;;;;;15.96;84.27;101246.78;10448892;28;20040;-79
2022/05/20 16:45:11;;;;;;;1.40;1.30;;;;;;;14.85;84.50;101265.41;10458225;28;20051;-80
2022/05/20 16:50:16;;;;;;;0.35;0.35;;;;;;;14.58;84.21;101273.59;10452796;28;20055;-79
2022/05/20 16:55:19;;;;;;;1.27;1.17;;;;;;;14.74;82.64;101264.34;10428242;28;20053;-78
2022/05/20 17:05:43;;;;;;;0.43;0.20;;;;;;;14.42;80.09;101306.16;10460469;28;20385;-78
2022/05/20 17:10:45;;;;;;;0.20;0.20;;;;;;;14.34;80.96;101315.53;10442158;28;20139;-79
2022/05/20 17:15:47;;;;;;;3.90;1.65;;;;;;;14.30;80.45;101313.75;10442115;28;20107;-79
2022/05/20 17:20:49;;;;;;;1.00;0.52;;;;;;;14.22;81.08;101331.78;10441912;28;20052;-78
2022/05/20 17:25:57;;;;;;;0.00;0.00;;;;;;;14.56;81.09;101353.06;10442665;28;20059;-78
2022/05/20 17:30:59;;;;;;;0.00;0.00;;;;;;;14.31;80.14;101363.00;10459824;28;20049;-79
2022/05/20 17:36:03;;;;;;;0.30;0.30;;;;;;;14.50;80.47;101379.75;10459246;28;20087;-79
2022/05/20 17:41:05;;;;;;;0.10;0.10;;;;;;;14.43;80.20;101398.66;10441439;28;20048;-79
2022/05/20 17:52:41;;;;;;;0.40;0.40;;;;;;;14.62;78.95;101458.63;10446292;28;20060;-79
2022/05/20 17:57:43;;;;;;;0.10;0.10;;;;;;;14.36;80.37;101485.81;10439970;28;20104;-79
2022/05/20 18:03:49;;;;;;;0.00;0.00;;;;;;;14.40;81.73;101491.94;10457264;28;20136;-79
2022/05/20 18:08:51;;;;;;;1.23;0.82;;;;;;;14.39;81.79;101505.75;10439515;28;20041;-81
2022/05/20 18:13:53;;;;;;;0.82;0.50;;;;;;;14.44;82.13;101514.47;10439347;28;20098;-81
2022/05/20 18:18:55;;;;;;;0.08;0.08;;;;;;;14.42;82.32;101526.53;10457662;28;20408;-80
2022/05/20 18:23:56;;;;;;;0.75;0.60;;;;;;;14.28;81.14;101534.91;10440549;28;20045;-80
2022/05/20 18:28:58;;;;;;;0.10;0.08;;;;;;;14.17;80.57;101541.59;10456769;28;20091;-80
2022/05/20 18:33:59;;;;;;;0.75;0.73;;;;;;;14.16;81.05;101552.78;10439091;28;20053;-80
2022/05/20 18:39:19;;;;;;;0.25;0.25;;;;;;;14.07;82.38;101563.81;10467401;28;20036;-80
2022/05/20 18:44:21;;;;;;;0.77;0.77;;;;;;;13.95;83.03;101572.22;10437049;28;20045;-81
2022/05/20 18:49:23;;;;;;;0.08;0.08;;;;;;;13.91;83.51;101572.97;10438400;28;20049;-83
2022/05/20 18:54:24;;;;;;;6.22;1.23;;;;;;;13.81;83.63;101578.78;10418098;28;20087;-83
2022/05/20 18:59:28;;;;;;;0.00;0.00;;;;;;;13.64;83.72;101581.84;10446665;28;20067;-82
2022/05/20 19:04:30;;;;;;;0.82;0.82;;;;;;;13.49;84.50;101584.91;10448728;28;20049;-83
2022/05/20 19:09:32;;;;;;;0.00;0.00;;;;;;;13.56;84.50;101588.53;10458921;28;20045;-82
2022/05/20 19:14:37;;;;;;;0.00;0.00;;;;;;;13.46;85.49;101590.03;10441407;28;20048;-82
2022/05/20 19:19:39;;;;;;;0.03;0.03;;;;;;;13.51;84.82;101590.16;10434996;28;20068;-82
2022/05/20 19:24:44;;;;;;;0.00;0.00;;;;;;;13.59;84.07;101598.09;10441985;28;20063;-83
2022/05/20 19:29:46;;;;;;;0.00;0.00;;;;;;;13.58;84.21;101607.59;10445247;28;20447;-83
2022/05/20 19:34:48;;;;;;;0.00;0.00;;;;;;;13.56;84.63;101629.97;10453858;28;20519;-82
2022/05/20 19:39:50;;;;;;;0.00;0.00;;;;;;;13.53;84.59;101635.06;10451622;28;20059;-83
2022/05/20 19:44:51;;;;;;;10.40;1.17;;;;;;;13.45;84.45;101657.28;10477608;28;20492;-83
2022/05/20 19:49:53;;;;;;;2.95;2.70;;;;;;;13.39;82.80;101667.47;10477965;28;20045;-82
2022/05/20 19:54:55;;;;;;;1.23;1.13;;;;;;;13.25;81.88;101686.06;10445057;28;20055;-84
2022/05/20 20:05:51;;;;;;;0.55;0.28;;;;;;;13.07;79.59;101701.97;10427179;28;20102;-84
2022/05/20 20:10:57;;;;;;;0.57;0.57;;;;;;;13.00;80.06;101711.25;10498134;28;20040;-84
2022/05/20 20:16:03;;;;;;;0.45;0.45;;;;;;;12.88;81.44;101731.59;10457800;28;20041;-84
2022/05/20 20:26:26;;;;;;;0.25;0.25;;;;;;;12.78;81.25;101739.88;10461888;28;20049;-84
2022/05/20 20:31:31;;;;;;;0.32;0.10;;;;;;;12.74;80.22;101744.09;10470736;28;20106;-83
2022/05/20 20:36:33;;;;;;;0.28;0.17;;;;;;;12.64;80.40;101767.91;10479415;28;20045;-83
2022/05/20 20:41:35;;;;;;;0.00;0.00;;;;;;;12.59;80.04;101783.28;10443778;28;20056;-84
2022/05/20 20:46:49;;;;;;;0.43;0.20;;;;;;;12.45;81.03;101792.31;10464673;28;20108;-83
2022/05/20 20:51:51;;;;;;;0.10;0.10;;;;;;;12.33;81.69;101787.59;10444865;28;20063;-83
2022/05/20 20:56:53;;;;;;;0.00;0.00;;;;;;;12.42;82.32;101802.53;10468915;28;20127;-84
2022/05/20 21:01:55;;;;;;;0.30;0.30;;;;;;;12.47;82.47;101811.34;10455193;28;20053;-83
2022/05/20 21:06:59;;;;;;;1.17;0.38;;;;;;;12.47;82.64;101806.16;10482296;28;20065;-84
2022/05/20 21:12:19;;;;;;;0.57;0.45;;;;;;;12.46;81.95;101819.91;10456361;28;20053;-83
2022/05/20 21:17:22;;;;;;;0.00;0.00;;;;;;;12.45;82.44;101818.16;10447639;28;20416;-83
2022/05/20 21:22:24;;;;;;;0.00;0.00;;;;;;;12.45;81.62;101821.59;10435428;28;20060;-83
2022/05/20 21:27:26;;;;;;;0.10;0.05;;;;;;;12.45;81.58;101823.31;10443948;28;20102;-82
2022/05/20 21:32:28;;;;;;;0.00;0.00;;;;;;;12.45;81.06;101828.50;10438711;28;20083;-84
2022/05/20 21:37:30;;;;;;;0.10;0.10;;;;;;;12.45;79.88;101838.81;10452031;28;20119;-83
2022/05/20 21:42:32;;;;;;;0.50;0.50;;;;;;;12.41;80.20;101848.19;10472101;28;20044;-84
2022/05/20 21:47:34;;;;;;;0.00;0.00;;;;;;;12.52;79.96;101849.41;10444378;28;20447;-82
2022/05/20 21:52:36;;;;;;;0.00;0.00;;;;;;;12.49;80.38;101858.75;10457751;28;20086;-82
2022/05/20 21:57:39;;;;;;;0.28;0.25;;;;;;;12.28;80.73;101877.03;10440328;28;20064;-82
2022/05/20 22:13:26;;;;;;;0.00;0.00;;;;;;;12.21;80.49;101875.91;10432444;28;20053;-83
2022/05/20 22:18:27;;;;;;;0.00;0.00;;;;;;;12.20;80.90;101874.16;10438422;28;20079;-83
2022/05/20 22:23:32;;;;;;;0.00;0.00;;;;;;;12.21;80.42;101891.41;10456238;28;20381;-83
2022/05/20 22:28:34;;;;;;;0.00;0.00;;;;;;;12.40;80.33;101886.91;10439147;28;20033;-83
2022/05/20 22:33:36;;;;;;;0.00;0.00;;;;;;;12.47;80.76;101896.63;10455686;28;20052;-83
2022/05/20 22:38:38;;;;;;;0.40;0.40;;;;;;;12.33;80.62;101884.09;10456622;28;20037;-83
2022/05/20 22:43:40;;;;;;;0.20;0.20;;;;;;;12.35;80.44;101890.19;10438823;28;20110;-82
2022/05/20 22:48:41;;;;;;;0.00;0.00;;;;;;;12.36;80.70;101885.91;10456503;28;20041;-83
2022/05/20 22:53:43;;;;;;;0.00;0.00;;;;;;;12.39;80.90;101886.00;10456844;28;20083;-83
2022/05/20 22:58:47;;;;;;;0.00;0.00;;;;;;;12.34;80.53;101883.25;10406003;28;20100;-82
2022/05/20 23:03:51;;;;;;;0.38;0.38;;;;;;;12.40;80.10;101876.56;10413707;28;20057;-83
2022/05/20 23:08:54;;;;;;;0.10;0.10;;;;;;;12.35;80.50;101884.16;10413316;28;20448;-84
2022/05/20 23:13:56;;;;;;;0.10;0.10;;;;;;;12.41;80.47;101883.47;10415160;28;20049;-83
2022/05/20 23:18:58;;;;;;;0.00;0.00;;;;;;;12.48;80.28;101888.00;10413254;28;20041;-83
2022/05/20 23:24:01;;;;;;;0.35;0.35;;;;;;;12.52;80.06;101888.19;10396971;28;20715;-83
2022/05/20 23:29:02;;;;;;;0.00;0.00;;;;;;;12.61;80.36;101892.78;10396450;28;20111;-83
2022/05/20 23:34:04;;;;;;;0.00;0.00;;;;;;;12.57;80.50;101900.41;10397007;28;20053;-82
2022/05/20 23:39:08;;;;;;;0.00;0.00;;;;;;;12.59;80.64;101894.44;10450158;28;20036;-83
2022/05/20 23:44:13;;;;;;;0.00;0.00;;;;;;;12.56;80.27;101876.22;10437561;28;20591;-83
2022/05/20 23:49:17;;;;;;;0.00;0.00;;;;;;;12.58;80.27;101871.13;10437708;28;20435;-83
2022/05/20 23:57:06;;;;;;;0.00;0.00;;;;;;;12.54;80.67;101865.84;10437892;28;20374;-84
2022/05/20 23:59:44;;;;;;;0.00;0.00;;;;;;;12.37;81.01;101873.03;10454687;28;20601;-84
